LFAC METAR and TAF | Updated Today

LFAC METAR

Calais-Dunkerque Airport

Observation time: 23 min. ago

LFAC 010830Z AUTO 28020KT 9999 BKN021 16/12 Q1005

Need help? Read our tutorial on how to read METARs or read the parsed version below.

Calais-Dunkerque Airport (LFAC) METAR

  • Weather conditions on Sat, 01 Oct 2022 08:30:00 +0000 (23 min. ago):
  • Present conditions: Dry
  • Clouds: Broken sky at 640 meters
  • Visibility: Greater than 10 km
  • Wind: 280 degrees at 20 knots
  • Temperature: 16 celsius
  • Dew point: 12 celsius
  • Pressure: 1005 millibars
  • Remarks: None


Useful to know...

  • Codes: LFAC/CQF
  • Airport elevation: 12ft
  • Municipality: Calais/Dunkerque
  • Country: France
  • Continent: Europe